Yerseke, Netherlands
Current Conditions -  °F | °C
As of 4:55 AM on Friday 28 Nov 2014 (Local Time) from EHWO Reporting Station
Haze Haze  
Wind Chill: 37°   Ceiling: Unl
Heat Index: 43°   Visibility: 3mi
Dew Point: 43°   Wind: 9mph
Humidity: 100%   Direction: 90°E
Pressure: 29.68"   Gusts: NA
Location:  51.49°N, 4.05°E
Report Text: EHWO 280355Z AUTO 09008KT 5000 BR FEW004 06/06 Q1005 WHT
Loading
Personal Weather Stations






























Interactive Weather Map New forecast layout! Learn more

10-Day Weather Forecast

Advertisements
Track Severe Weather on mobile